< < Back
Terminal Aerodrome Forecast


Current Version              Previous Versions:   1  2  3  4  5  6  7  8  9  

Terminal Aerodrome Forecast

382
FTUS42 KCHS 190500
TAFCHS
TAF
KCHS 190523Z 1906/2006 VRB03KT P6SM SCT120 BKN250=



Latest METAR

601
SAUS80 KWBC 190700 RRB
MTRCHS
METAR KCHS 190656Z 00000KT 9SM SCT250 07/06 A3010 RMK AO2 SLP193
T00720061


USA.gov is the U.S. government's official web portal to all federal, state and local government web resources and services.